Time;durP1;ratioP1;P1;durP2;ratioP2;P2;SDS_P1;SDS_P2;PMS_P1;PMS_P2;Temp;Humidity;BMP_temperature;BMP_pressure;BME280_temperature;BME280_humidity;BME280_pressure;Samples;Min_cycle;Max_cycle;Signal;HPM_P1;HPM_P2
2023/01/10 00:02:03;;;;;;;1.50;0.70;;;;;;;;;;5115815;28;20059;-56
2023/01/10 00:04:29;;;;;;;1.10;0.43;;;;;;;;;;5116843;28;20042;-57
2023/01/10 00:06:56;;;;;;;0.25;0.10;;;;;;;;;;5116235;28;20059;-54
2023/01/10 00:09:22;;;;;;;0.90;0.52;;;;;;;;;;5116167;28;20019;-55
2023/01/10 00:14:34;;;;;;;0.75;0.60;;;;;;;;;;5116444;28;20027;-57
2023/01/10 00:17:00;;;;;;;1.02;0.93;;;;;;;;;;5115990;28;20377;-57
2023/01/10 00:19:26;;;;;;;0.73;0.47;;;;;;;;;;5115616;28;20016;-56
2023/01/10 00:21:52;;;;;;;1.27;0.57;;;;;;;;;;5116351;28;20024;-56
2023/01/10 00:24:18;;;;;;;1.75;1.30;;;;;;;;;;5115645;28;20389;-54
2023/01/10 00:26:49;;;;;;;1.55;0.73;;;;;;;;;;5115816;28;20024;-56
2023/01/10 00:29:16;;;;;;;0.93;0.30;;;;;;;;;;5115806;28;20031;-55
2023/01/10 00:31:42;;;;;;;0.98;0.57;;;;;;;;;;5115749;28;20030;-56
2023/01/10 00:34:08;;;;;;;0.52;0.30;;;;;;;;;;5115410;28;20028;-54
2023/01/10 00:36:34;;;;;;;1.33;0.57;;;;;;;;;;5115594;28;20027;-57
2023/01/10 00:39:00;;;;;;;0.13;0.10;;;;;;;;;;5116222;28;20027;-57
2023/01/10 00:44:10;;;;;;;0.22;0.20;;;;;;;;;;5115304;28;20035;-56
2023/01/10 00:46:36;;;;;;;0.70;0.43;;;;;;;;;;5115456;28;20377;-57
2023/01/10 00:49:05;;;;;;;0.95;0.50;;;;;;;;;;5115097;28;20102;-56
2023/01/10 00:51:31;;;;;;;1.05;0.50;;;;;;;;;;5115356;28;20028;-58
2023/01/10 00:53:57;;;;;;;0.68;0.50;;;;;;;;;;5114982;28;20020;-57
2023/01/10 00:56:23;;;;;;;0.75;0.45;;;;;;;;;;5115275;28;20073;-54
2023/01/10 00:58:49;;;;;;;1.10;0.60;;;;;;;;;;5114513;28;20027;-57
2023/01/10 01:01:15;;;;;;;0.73;0.47;;;;;;;;;;5115029;28;20027;-57
2023/01/10 01:03:41;;;;;;;0.75;0.55;;;;;;;;;;5114824;28;20044;-55
2023/01/10 01:06:07;;;;;;;0.55;0.30;;;;;;;;;;5115922;28;20023;-57
2023/01/10 01:08:33;;;;;;;0.95;0.40;;;;;;;;;;5115052;28;20050;-54
2023/01/10 01:10:59;;;;;;;1.48;0.55;;;;;;;;;;5115226;28;20023;-54
2023/01/10 01:13:25;;;;;;;0.85;0.52;;;;;;;;;;5114943;28;20039;-55
2023/01/10 01:15:51;;;;;;;1.33;0.73;;;;;;;;;;5115496;28;20185;-57
2023/01/10 01:18:19;;;;;;;1.38;0.65;;;;;;;;;;5114836;28;20094;-57
2023/01/10 01:20:46;;;;;;;1.55;0.73;;;;;;;;;;5115314;28;20047;-57
2023/01/10 01:23:12;;;;;;;2.28;0.70;;;;;;;;;;5114890;28;20449;-57
2023/01/10 01:25:38;;;;;;;1.17;0.65;;;;;;;;;;5115309;28;20477;-55
2023/01/10 01:28:04;;;;;;;1.60;1.00;;;;;;;;;;5114658;28;20061;-56
2023/01/10 01:30:30;;;;;;;1.83;0.80;;;;;;;;;;5114910;28;20035;-57
2023/01/10 01:32:56;;;;;;;1.40;0.68;;;;;;;;;;5114625;28;20027;-57
2023/01/10 01:35:23;;;;;;;0.35;0.30;;;;;;;;;;5115131;28;20501;-56
2023/01/10 01:37:49;;;;;;;5.22;1.10;;;;;;;;;;5114457;28;20024;-57
2023/01/10 01:40:17;;;;;;;1.23;0.65;;;;;;;;;;5096632;28;20024;-56
2023/01/10 01:42:43;;;;;;;0.45;0.30;;;;;;;;;;5114360;28;20377;-57
2023/01/10 01:45:09;;;;;;;0.60;0.30;;;;;;;;;;5115042;28;20028;-55
2023/01/10 01:47:52;;;;;;;0.52;0.20;;;;;;;;;;5114849;28;20024;-57
2023/01/10 01:50:18;;;;;;;0.40;0.10;;;;;;;;;;5114891;28;20032;-57
2023/01/10 01:52:44;;;;;;;0.98;0.43;;;;;;;;;;5114313;28;20102;-57
2023/01/10 01:55:10;;;;;;;0.95;0.50;;;;;;;;;;5114656;28;20030;-55
2023/01/10 01:57:37;;;;;;;3.78;0.90;;;;;;;;;;5114547;28;20103;-57
2023/01/10 02:00:04;;;;;;;0.55;0.30;;;;;;;;;;5095941;28;20033;-57
2023/01/10 02:02:36;;;;;;;1.25;0.70;;;;;;;;;;5113806;28;20055;-55
2023/01/10 02:05:05;;;;;;;0.90;0.50;;;;;;;;;;5114239;28;20023;-56
2023/01/10 02:07:36;;;;;;;0.82;0.40;;;;;;;;;;5114185;28;20051;-56
2023/01/10 02:10:04;;;;;;;0.80;0.55;;;;;;;;;;5116836;28;20085;-56
2023/01/10 02:12:31;;;;;;;0.90;0.50;;;;;;;;;;5118364;28;20035;-57
2023/01/10 02:14:58;;;;;;;1.58;0.90;;;;;;;;;;5119483;28;20051;-56
2023/01/10 02:17:24;;;;;;;0.47;0.30;;;;;;;;;;5118360;28;20024;-57
2023/01/10 02:19:52;;;;;;;0.73;0.40;;;;;;;;;;5099878;28;20024;-57
2023/01/10 02:22:38;;;;;;;2.38;0.25;;;;;;;;;;5118128;28;20035;-57
2023/01/10 02:25:18;;;;;;;0.73;0.40;;;;;;;;;;5118499;28;20042;-56
2023/01/10 02:27:53;;;;;;;0.40;0.28;;;;;;;;;;5118116;28;20031;-57
2023/01/10 02:30:22;;;;;;;0.73;0.43;;;;;;;;;;5118069;28;20062;-56
2023/01/10 02:33:07;;;;;;;1.67;0.50;;;;;;;;;;5118069;28;20094;-56
2023/01/10 02:35:38;;;;;;;0.75;0.38;;;;;;;;;;5118101;28;20072;-57
2023/01/10 02:38:23;;;;;;;1.13;0.57;;;;;;;;;;5117963;28;20077;-56
2023/01/10 02:41:09;;;;;;;0.85;0.47;;;;;;;;;;5118715;28;20038;-56
2023/01/10 02:43:42;;;;;;;0.45;0.22;;;;;;;;;;5100404;28;20055;-56
2023/01/10 02:46:15;;;;;;;3.25;1.00;;;;;;;;;;5118100;28;20063;-57
2023/01/10 02:48:41;;;;;;;0.90;0.63;;;;;;;;;;5118421;28;20023;-56
2023/01/10 02:51:15;;;;;;;1.27;0.95;;;;;;;;;;5118276;28;20034;-54
2023/01/10 02:53:44;;;;;;;0.80;0.30;;;;;;;;;;5118046;28;20076;-56
2023/01/10 02:56:29;;;;;;;0.50;0.30;;;;;;;;;;5118520;28;20101;-55
2023/01/10 02:59:13;;;;;;;1.87;0.70;;;;;;;;;;5117600;28;20020;-57
2023/01/10 03:01:45;;;;;;;1.02;0.85;;;;;;;;;;5098759;28;20027;-55
2023/01/10 03:04:14;;;;;;;1.05;0.60;;;;;;;;;;5117554;28;20042;-56
2023/01/10 03:06:47;;;;;;;0.57;0.30;;;;;;;;;;5117672;28;20045;-56
2023/01/10 03:09:13;;;;;;;1.70;0.70;;;;;;;;;;5117683;28;20425;-54
2023/01/10 03:11:42;;;;;;;0.70;0.35;;;;;;;;;;5117328;28;20023;-57
2023/01/10 03:14:13;;;;;;;3.50;0.55;;;;;;;;;;5117562;28;20023;-57
2023/01/10 03:16:40;;;;;;;0.32;0.25;;;;;;;;;;5118023;28;20442;-54
2023/01/10 03:19:08;;;;;;;3.03;1.05;;;;;;;;;;5117182;28;20024;-56
2023/01/10 03:21:35;;;;;;;2.45;1.02;;;;;;;;;;5116374;28;20480;-57
2023/01/10 03:24:17;;;;;;;1.15;0.70;;;;;;;;;;5117070;28;20051;-57
2023/01/10 03:26:53;;;;;;;2.15;1.27;;;;;;;;;;5117001;28;20468;-56
2023/01/10 03:29:23;;;;;;;1.52;1.33;;;;;;;;;;5117573;28;20529;-54
2023/01/10 03:31:51;;;;;;;2.35;1.40;;;;;;;;;;5117528;28;20102;-56
2023/01/10 03:34:17;;;;;;;2.00;0.90;;;;;;;;;;5117192;28;20020;-56
2023/01/10 03:36:50;;;;;;;6.45;1.67;;;;;;;;;;5116833;28;20385;-54
2023/01/10 03:39:35;;;;;;;3.55;1.10;;;;;;;;;;5117070;28;20053;-55
2023/01/10 03:42:13;;;;;;;4.47;1.77;;;;;;;;;;5116595;28;20472;-57
2023/01/10 03:44:52;;;;;;;9.38;1.17;;;;;;;;;;5116757;28;20024;-56
2023/01/10 03:47:24;;;;;;;4.82;2.08;;;;;;;;;;5117437;28;20023;-56
2023/01/10 03:49:53;;;;;;;2.28;1.25;;;;;;;;;;5117144;28;20035;-57
2023/01/10 03:52:20;;;;;;;2.63;1.10;;;;;;;;;;5116509;28;20032;-57
2023/01/10 03:54:46;;;;;;;2.40;1.70;;;;;;;;;;5116846;28;20369;-56
2023/01/10 03:57:17;;;;;;;3.57;1.90;;;;;;;;;;5116381;28;20038;-56
2023/01/10 03:59:43;;;;;;;4.65;1.20;;;;;;;;;;5115987;28;20473;-55
2023/01/10 04:02:09;;;;;;;1.88;1.05;;;;;;;;;;5116304;28;20044;-53
2023/01/10 04:04:35;;;;;;;2.95;1.77;;;;;;;;;;5116558;28;20031;-55
2023/01/10 04:07:01;;;;;;;4.10;1.73;;;;;;;;;;5116537;28;20029;-57
2023/01/10 04:09:27;;;;;;;1.65;1.25;;;;;;;;;;5098102;28;20073;-55
2023/01/10 04:11:52;;;;;;;1.90;1.03;;;;;;;;;;5116084;28;20070;-57
2023/01/10 04:14:18;;;;;;;1.33;0.85;;;;;;;;;;5116468;28;20031;-55
2023/01/10 04:16:44;;;;;;;2.45;1.15;;;;;;;;;;5116054;28;20024;-56
2023/01/10 04:19:10;;;;;;;2.20;1.20;;;;;;;;;;5116294;28;20102;-56
2023/01/10 04:21:36;;;;;;;1.90;1.05;;;;;;;;;;5116131;28;20020;-54
2023/01/10 04:24:02;;;;;;;3.72;1.42;;;;;;;;;;5115935;28;20031;-57
2023/01/10 04:26:28;;;;;;;4.57;1.05;;;;;;;;;;5115437;28;20031;-55
2023/01/10 04:28:54;;;;;;;1.30;0.75;;;;;;;;;;5115803;28;20023;-54
2023/01/10 04:31:21;;;;;;;4.15;1.33;;;;;;;;;;5116275;28;20027;-57
2023/01/10 04:33:47;;;;;;;1.95;1.10;;;;;;;;;;5115565;28;20031;-55
2023/01/10 04:36:13;;;;;;;2.28;1.15;;;;;;;;;;5116439;28;20028;-56
2023/01/10 04:38:39;;;;;;;2.20;1.20;;;;;;;;;;5115725;28;20029;-57
2023/01/10 04:41:05;;;;;;;1.98;1.50;;;;;;;;;;5115902;28;20446;-57
2023/01/10 04:43:31;;;;;;;3.05;2.40;;;;;;;;;;5115820;28;20043;-55
2023/01/10 04:45:57;;;;;;;8.07;1.85;;;;;;;;;;5115824;28;20023;-56
2023/01/10 04:48:26;;;;;;;2.60;1.17;;;;;;;;;;5115447;28;20027;-57
2023/01/10 04:50:52;;;;;;;3.30;1.73;;;;;;;;;;5115963;28;20413;-56
2023/01/10 04:53:18;;;;;;;3.17;1.80;;;;;;;;;;5115586;28;20114;-56
2023/01/10 04:55:45;;;;;;;3.95;1.15;;;;;;;;;;5115060;28;20058;-56
2023/01/10 04:58:11;;;;;;;2.03;1.67;;;;;;;;;;5114943;28;20462;-55
2023/01/10 05:00:37;;;;;;;1.80;1.20;;;;;;;;;;5115242;28;20496;-53
2023/01/10 05:03:03;;;;;;;1.37;0.90;;;;;;;;;;5115274;28;20127;-57
2023/01/10 05:05:30;;;;;;;3.87;1.90;;;;;;;;;;5115552;28;20052;-56
2023/01/10 05:07:56;;;;;;;2.58;1.58;;;;;;;;;;5115095;28;20020;-55
2023/01/10 05:10:22;;;;;;;4.10;1.45;;;;;;;;;;5115065;28;20019;-53
2023/01/10 05:12:48;;;;;;;2.40;1.52;;;;;;;;;;5115766;28;20034;-53
2023/01/10 05:15:14;;;;;;;3.10;2.30;;;;;;;;;;5114961;28;20032;-56
2023/01/10 05:17:40;;;;;;;2.17;1.02;;;;;;;;;;5114968;28;20024;-56
2023/01/10 05:20:06;;;;;;;7.32;1.65;;;;;;;;;;5115662;28;20077;-54
2023/01/10 05:22:32;;;;;;;0.57;0.40;;;;;;;;;;5114421;28;20031;-55
2023/01/10 05:24:58;;;;;;;8.37;1.33;;;;;;;;;;5115596;28;20030;-53
2023/01/10 05:27:24;;;;;;;2.10;1.17;;;;;;;;;;5114819;28;20027;-57
2023/01/10 05:29:50;;;;;;;3.38;1.50;;;;;;;;;;5114928;28;20028;-56
2023/01/10 05:32:17;;;;;;;4.93;1.58;;;;;;;;;;5115180;28;20023;-56
2023/01/10 05:34:43;;;;;;;2.07;1.50;;;;;;;;;;5114423;28;20474;-55
2023/01/10 05:37:08;;;;;;;4.63;2.23;;;;;;;;;;5114945;28;20031;-56
2023/01/10 05:39:34;;;;;;;1.37;0.90;;;;;;;;;;5114513;28;20161;-57
2023/01/10 05:42:00;;;;;;;6.87;1.23;;;;;;;;;;5114538;28;20032;-53
2023/01/10 05:44:26;;;;;;;4.80;1.30;;;;;;;;;;5114547;28;20106;-56
2023/01/10 05:46:52;;;;;;;1.95;1.30;;;;;;;;;;5114411;28;20484;-55
2023/01/10 05:49:18;;;;;;;5.07;1.88;;;;;;;;;;5114996;28;20355;-56
2023/01/10 05:51:44;;;;;;;7.88;1.75;;;;;;;;;;5114383;28;20106;-54
2023/01/10 05:54:10;;;;;;;3.45;0.95;;;;;;;;;;5114436;28;20024;-54
2023/01/10 05:56:37;;;;;;;5.00;2.10;;;;;;;;;;5114300;28;20024;-56
2023/01/10 05:59:03;;;;;;;6.53;1.30;;;;;;;;;;5114299;28;20036;-56
2023/01/10 06:01:29;;;;;;;3.63;1.75;;;;;;;;;;5113883;28;20424;-56
2023/01/10 06:03:55;;;;;;;4.60;1.27;;;;;;;;;;5113791;28;20033;-57
2023/01/10 06:06:21;;;;;;;4.05;1.50;;;;;;;;;;5114854;28;20026;-55
2023/01/10 06:08:47;;;;;;;2.97;1.27;;;;;;;;;;5114689;28;20020;-56
2023/01/10 06:11:13;;;;;;;3.67;1.60;;;;;;;;;;5114783;28;20027;-57
2023/01/10 06:13:39;;;;;;;5.20;1.80;;;;;;;;;;5114115;28;20035;-53
2023/01/10 06:16:05;;;;;;;5.07;1.45;;;;;;;;;;5114447;28;20110;-52
2023/01/10 06:18:31;;;;;;;3.95;1.30;;;;;;;;;;5114347;28;20038;-55
2023/01/10 06:20:57;;;;;;;7.70;1.70;;;;;;;;;;5114355;28;20031;-56
2023/01/10 06:23:23;;;;;;;4.10;1.10;;;;;;;;;;5113950;28;20031;-56
2023/01/10 06:25:49;;;;;;;12.15;2.08;;;;;;;;;;5114082;28;20028;-55
2023/01/10 06:28:15;;;;;;;2.72;1.45;;;;;;;;;;5114602;28;20069;-55
2023/01/10 06:30:42;;;;;;;2.70;1.23;;;;;;;;;;5113310;28;20194;-56
2023/01/10 06:33:08;;;;;;;7.82;1.63;;;;;;;;;;5113688;28;20532;-56
2023/01/10 06:35:35;;;;;;;5.38;2.22;;;;;;;;;;5114438;28;20420;-57
2023/01/10 06:38:01;;;;;;;9.90;2.00;;;;;;;;;;5113904;28;20445;-54
2023/01/10 06:40:27;;;;;;;9.77;3.17;;;;;;;;;;5113899;28;20066;-55
2023/01/10 06:42:53;;;;;;;5.47;3.40;;;;;;;;;;5113807;28;20063;-56
2023/01/10 06:45:19;;;;;;;6.28;2.47;;;;;;;;;;5113912;28;20430;-56
2023/01/10 06:47:45;;;;;;;7.88;3.10;;;;;;;;;;5113651;28;20059;-54
2023/01/10 06:50:12;;;;;;;6.50;2.95;;;;;;;;;;5114026;28;20023;-57
2023/01/10 06:52:38;;;;;;;10.50;3.72;;;;;;;;;;5114563;28;20038;-57
2023/01/10 06:55:05;;;;;;;7.83;4.70;;;;;;;;;;5114401;28;20092;-53
2023/01/10 06:57:34;;;;;;;11.52;4.32;;;;;;;;;;5117677;28;20024;-54
2023/01/10 07:00:00;;;;;;;10.50;5.65;;;;;;;;;;5117603;28;20122;-56
2023/01/10 07:02:26;;;;;;;13.30;6.35;;;;;;;;;;5117449;28;20094;-57
2023/01/10 07:04:52;;;;;;;6.72;2.22;;;;;;;;;;5117408;28;20111;-56
2023/01/10 07:07:18;;;;;;;6.05;2.20;;;;;;;;;;5117339;28;20024;-56
2023/01/10 07:09:45;;;;;;;5.57;2.28;;;;;;;;;;5117328;28;20127;-56
2023/01/10 07:12:11;;;;;;;2.33;1.10;;;;;;;;;;5117328;28;20027;-55
2023/01/10 07:14:37;;;;;;;6.72;2.88;;;;;;;;;;5117389;28;20026;-55
2023/01/10 07:17:03;;;;;;;6.03;1.90;;;;;;;;;;5117556;28;20019;-56
2023/01/10 07:19:29;;;;;;;4.15;1.33;;;;;;;;;;5117964;28;20361;-57
2023/01/10 07:21:55;;;;;;;2.78;1.25;;;;;;;;;;5117681;28;20031;-56
2023/01/10 07:24:21;;;;;;;3.05;1.15;;;;;;;;;;5117983;28;20027;-53
2023/01/10 07:26:47;;;;;;;1.17;0.60;;;;;;;;;;5117639;28;20438;-57
2023/01/10 07:29:13;;;;;;;5.65;1.52;;;;;;;;;;5117412;28;20037;-56
2023/01/10 07:31:39;;;;;;;5.50;1.15;;;;;;;;;;5117343;28;20035;-55
2023/01/10 07:34:05;;;;;;;2.58;1.23;;;;;;;;;;5116615;28;20023;-56
2023/01/10 07:36:31;;;;;;;5.05;3.00;;;;;;;;;;5116618;28;20080;-56
2023/01/10 07:38:57;;;;;;;2.53;1.25;;;;;;;;;;5116860;28;20023;-54
2023/01/10 07:41:22;;;;;;;3.58;1.05;;;;;;;;;;5116464;28;20034;-57
2023/01/10 07:43:48;;;;;;;16.67;2.15;;;;;;;;;;5116605;28;20031;-55
2023/01/10 07:46:14;;;;;;;2.13;0.80;;;;;;;;;;5116740;28;20034;-57
2023/01/10 07:48:40;;;;;;;2.05;0.70;;;;;;;;;;5116489;28;20020;-54
2023/01/10 07:51:07;;;;;;;3.53;1.48;;;;;;;;;;5116724;28;20368;-56
2023/01/10 07:53:32;;;;;;;1.90;0.70;;;;;;;;;;5098092;28;20036;-56
2023/01/10 07:55:59;;;;;;;1.73;0.93;;;;;;;;;;5116713;28;20080;-56
2023/01/10 07:58:25;;;;;;;4.68;1.55;;;;;;;;;;5116995;28;20024;-56
2023/01/10 08:00:51;;;;;;;4.43;0.88;;;;;;;;;;5117128;28;20038;-55
2023/01/10 08:03:17;;;;;;;4.20;1.17;;;;;;;;;;5116203;28;20393;-57
2023/01/10 08:05:44;;;;;;;2.22;1.27;;;;;;;;;;5116999;28;20039;-56
2023/01/10 08:08:11;;;;;;;2.80;1.27;;;;;;;;;;5116060;28;20039;-55
2023/01/10 08:10:38;;;;;;;3.67;0.95;;;;;;;;;;5116350;28;20457;-56
2023/01/10 08:13:05;;;;;;;3.45;1.48;;;;;;;;;;5116244;28;20028;-54
2023/01/10 08:15:31;;;;;;;1.75;0.80;;;;;;;;;;5116341;28;20416;-57
2023/01/10 08:18:03;;;;;;;3.65;1.55;;;;;;;;;;5116366;28;20369;-54
2023/01/10 08:20:29;;;;;;;3.55;1.92;;;;;;;;;;5116101;28;20023;-56
2023/01/10 08:22:58;;;;;;;3.20;1.50;;;;;;;;;;5115927;28;20039;-55
2023/01/10 08:25:25;;;;;;;6.50;1.60;;;;;;;;;;5116597;28;20024;-56
2023/01/10 08:27:51;;;;;;;1.90;1.13;;;;;;;;;;5115957;28;20043;-55
2023/01/10 08:30:17;;;;;;;2.67;1.05;;;;;;;;;;5115923;28;20063;-54
2023/01/10 08:32:43;;;;;;;5.28;1.00;;;;;;;;;;5116580;28;20035;-56
2023/01/10 08:35:09;;;;;;;3.25;1.23;;;;;;;;;;5116122;28;20020;-55
2023/01/10 08:37:35;;;;;;;4.35;1.60;;;;;;;;;;5115690;28;20028;-56
2023/01/10 08:40:01;;;;;;;2.72;0.60;;;;;;;;;;5115650;28;20039;-57
2023/01/10 08:42:27;;;;;;;4.47;1.20;;;;;;;;;;5116112;28;20467;-57
2023/01/10 08:44:53;;;;;;;5.47;1.88;;;;;;;;;;5116312;28;20036;-59
2023/01/10 08:47:19;;;;;;;3.22;1.20;;;;;;;;;;5115612;28;20034;-54
2023/01/10 08:49:48;;;;;;;3.95;0.98;;;;;;;;;;5115561;28;20066;-57
2023/01/10 08:52:14;;;;;;;5.80;1.48;;;;;;;;;;5115406;28;20073;-54
2023/01/10 08:54:40;;;;;;;6.47;1.92;;;;;;;;;;5115746;28;20015;-56
2023/01/10 08:57:06;;;;;;;3.70;1.40;;;;;;;;;;5115644;28;20110;-56
2023/01/10 08:59:32;;;;;;;2.53;0.98;;;;;;;;;;5115619;28;20449;-55
2023/01/10 09:01:58;;;;;;;1.00;0.60;;;;;;;;;;5115709;28;20047;-56
2023/01/10 09:04:25;;;;;;;2.78;0.65;;;;;;;;;;5115164;28;20492;-57
2023/01/10 09:06:51;;;;;;;1.45;0.88;;;;;;;;;;5115166;28;20036;-54
2023/01/10 09:09:17;;;;;;;2.35;1.35;;;;;;;;;;5115096;28;20023;-55
2023/01/10 09:11:43;;;;;;;4.72;1.45;;;;;;;;;;5115320;28;20027;-58
2023/01/10 09:14:09;;;;;;;4.22;1.90;;;;;;;;;;5115168;28;20031;-54
2023/01/10 09:16:35;;;;;;;3.60;1.00;;;;;;;;;;5115205;28;20027;-56
2023/01/10 09:19:02;;;;;;;2.53;0.95;;;;;;;;;;5113719;28;20517;-57
2023/01/10 09:21:28;;;;;;;3.85;1.83;;;;;;;;;;5115368;28;20043;-56
2023/01/10 09:23:54;;;;;;;3.67;1.50;;;;;;;;;;5115269;28;20059;-55
2023/01/10 09:26:20;;;;;;;4.25;1.52;;;;;;;;;;5114868;28;20377;-56
2023/01/10 09:28:45;;;;;;;1.85;1.05;;;;;;;;;;5114057;28;20089;-55
2023/01/10 09:31:11;;;;;;;2.65;1.58;;;;;;;;;;5114714;28;20110;-57
2023/01/10 09:33:40;;;;;;;2.63;1.38;;;;;;;;;;5114624;28;20023;-54
2023/01/10 09:36:07;;;;;;;3.30;1.20;;;;;;;;;;5115260;28;20070;-56
2023/01/10 09:38:33;;;;;;;3.40;1.35;;;;;;;;;;5115395;28;20076;-57
2023/01/10 09:41:08;;;;;;;1.67;0.98;;;;;;;;;;5115287;28;20059;-57
2023/01/10 09:43:37;;;;;;;2.47;1.60;;;;;;;;;;5114337;28;20023;-57
2023/01/10 09:46:06;;;;;;;4.57;1.55;;;;;;;;;;5115377;28;20035;-55
2023/01/10 09:48:38;;;;;;;2.78;1.77;;;;;;;;;;5114419;28;20024;-57
2023/01/10 09:51:13;;;;;;;2.00;1.45;;;;;;;;;;5114659;28;20027;-57
2023/01/10 09:53:41;;;;;;;2.03;1.45;;;;;;;;;;5114912;28;20119;-57
2023/01/10 09:56:08;;;;;;;3.85;1.35;;;;;;;;;;5114670;28;20028;-57
2023/01/10 09:58:35;;;;;;;2.22;1.33;;;;;;;;;;5113838;28;20458;-57
2023/01/10 10:01:04;;;;;;;2.78;1.17;;;;;;;;;;5114380;28;20045;-57
2023/01/10 10:03:43;;;;;;;2.28;1.23;;;;;;;;;;5114126;28;20059;-55
2023/01/10 10:06:11;;;;;;;4.28;1.05;;;;;;;;;;5114528;28;20028;-54
2023/01/10 10:08:37;;;;;;;4.53;1.17;;;;;;;;;;5113997;28;20110;-57
2023/01/10 10:11:22;;;;;;;1.60;0.68;;;;;;;;;;5114061;28;20073;-58
2023/01/10 10:13:48;;;;;;;1.73;0.93;;;;;;;;;;5114045;28;20045;-55
2023/01/10 10:16:26;;;;;;;3.33;2.60;;;;;;;;;;5114742;28;20023;-57
2023/01/10 10:18:52;;;;;;;4.47;1.52;;;;;;;;;;5114075;28;20027;-56
2023/01/10 10:21:30;;;;;;;1.67;1.23;;;;;;;;;;5114091;28;20035;-55
2023/01/10 10:23:56;;;;;;;4.47;1.55;;;;;;;;;;5113901;28;20042;-56
2023/01/10 10:26:37;;;;;;;2.25;1.33;;;;;;;;;;5114475;28;20028;-55
2023/01/10 10:29:05;;;;;;;8.25;1.05;;;;;;;;;;5113957;28;20034;-57
2023/01/10 10:31:37;;;;;;;2.58;0.88;;;;;;;;;;5117560;28;20369;-55
2023/01/10 10:34:23;;;;;;;7.32;1.02;;;;;;;;;;5118043;28;20080;-56
2023/01/10 10:36:51;;;;;;;2.95;0.70;;;;;;;;;;5100087;28;20440;-54
2023/01/10 10:39:18;;;;;;;7.53;1.83;;;;;;;;;;5118003;28;20053;-56
2023/01/10 10:41:46;;;;;;;2.75;1.20;;;;;;;;;;5117982;28;20342;-56
2023/01/10 10:44:22;;;;;;;6.13;0.95;;;;;;;;;;5117873;28;20111;-57
2023/01/10 10:46:48;;;;;;;1.73;0.77;;;;;;;;;;5118182;28;20024;-56
2023/01/10 10:49:21;;;;;;;0.93;0.57;;;;;;;;;;5117462;28;20500;-54
2023/01/10 10:51:52;;;;;;;2.67;1.35;;;;;;;;;;5117546;28;20373;-56
2023/01/10 10:54:18;;;;;;;2.60;0.32;;;;;;;;;;5118162;28;20023;-56
2023/01/10 10:56:44;;;;;;;3.75;0.70;;;;;;;;;;5117559;28;20019;-56
2023/01/10 10:59:14;;;;;;;3.40;0.63;;;;;;;;;;5117415;28;20476;-55
2023/01/10 11:01:45;;;;;;;7.38;0.98;;;;;;;;;;5117384;28;20060;-50
2023/01/10 11:04:13;;;;;;;4.75;1.58;;;;;;;;;;5117796;28;20042;-55
2023/01/10 11:06:49;;;;;;;4.70;1.08;;;;;;;;;;5117378;28;20015;-55
2023/01/10 11:09:36;;;;;;;2.85;0.80;;;;;;;;;;5117576;28;20095;-57
2023/01/10 11:12:02;;;;;;;0.95;0.63;;;;;;;;;;5118021;28;20027;-57
2023/01/10 11:14:43;;;;;;;4.47;1.42;;;;;;;;;;5117662;28;20020;-57
2023/01/10 11:17:28;;;;;;;3.08;0.75;;;;;;;;;;5117357;28;20023;-57
2023/01/10 11:19:55;;;;;;;2.50;1.08;;;;;;;;;;5117102;28;20226;-57
2023/01/10 11:22:21;;;;;;;10.35;3.03;;;;;;;;;;5116761;28;20473;-55
2023/01/10 11:24:52;;;;;;;3.60;0.90;;;;;;;;;;5117343;28;20160;-56
2023/01/10 11:27:23;;;;;;;5.38;1.38;;;;;;;;;;5117717;28;20031;-55
2023/01/10 11:29:50;;;;;;;2.55;0.57;;;;;;;;;;5117010;28;20390;-55
2023/01/10 11:32:18;;;;;;;2.95;1.33;;;;;;;;;;5117364;28;20364;-52
2023/01/10 11:34:52;;;;;;;5.57;0.77;;;;;;;;;;5117068;28;20393;-55
2023/01/10 11:37:18;;;;;;;3.88;1.15;;;;;;;;;;5116886;28;20469;-55
2023/01/10 11:39:44;;;;;;;3.03;1.33;;;;;;;;;;5116920;28;20012;-57
2023/01/10 11:42:29;;;;;;;2.40;0.77;;;;;;;;;;5116081;28;20085;-57
2023/01/10 11:44:56;;;;;;;2.65;0.60;;;;;;;;;;5117468;28;20089;-55
2023/01/10 11:47:22;;;;;;;1.45;0.70;;;;;;;;;;5116990;28;20023;-55
2023/01/10 11:49:49;;;;;;;5.43;1.25;;;;;;;;;;5116462;28;20074;-55
2023/01/10 11:52:17;;;;;;;2.20;1.25;;;;;;;;;;5116567;28;20369;-54
2023/01/10 11:54:43;;;;;;;1.63;0.68;;;;;;;;;;5116848;28;20051;-54
2023/01/10 11:57:22;;;;;;;2.05;0.57;;;;;;;;;;5116249;28;20023;-54
2023/01/10 11:59:52;;;;;;;3.45;0.90;;;;;;;;;;5116943;28;20031;-55
2023/01/10 12:02:27;;;;;;;1.83;0.82;;;;;;;;;;5116300;28;20048;-54
2023/01/10 12:04:55;;;;;;;3.75;1.08;;;;;;;;;;5116754;28;20090;-54
2023/01/10 12:07:21;;;;;;;0.93;0.47;;;;;;;;;;5116400;28;20055;-50
2023/01/10 12:10:00;;;;;;;4.40;1.30;;;;;;;;;;5117178;28;20045;-50
2023/01/10 12:12:30;;;;;;;5.32;1.65;;;;;;;;;;5116185;28;20107;-51
2023/01/10 12:14:57;;;;;;;2.75;1.73;;;;;;;;;;5116493;28;20110;-56
2023/01/10 12:17:33;;;;;;;2.88;0.55;;;;;;;;;;5115903;28;20031;-56
2023/01/10 12:20:00;;;;;;;2.15;0.80;;;;;;;;;;5115993;28;20027;-53
2023/01/10 12:22:30;;;;;;;4.68;1.17;;;;;;;;;;5116123;28;20035;-54
2023/01/10 12:24:56;;;;;;;1.40;0.68;;;;;;;;;;5116789;28;20036;-56
2023/01/10 12:27:23;;;;;;;4.38;2.70;;;;;;;;;;5116464;28;20028;-56
2023/01/10 12:29:58;;;;;;;3.03;1.58;;;;;;;;;;5116048;28;20362;-56
2023/01/10 12:32:28;;;;;;;4.35;2.97;;;;;;;;;;5116241;28;20402;-55
2023/01/10 12:34:57;;;;;;;6.05;2.75;;;;;;;;;;5115745;28;20026;-55
2023/01/10 12:37:27;;;;;;;2.80;0.75;;;;;;;;;;5115711;28;20030;-54
2023/01/10 12:39:58;;;;;;;1.75;0.73;;;;;;;;;;5115522;28;20077;-55
2023/01/10 12:45:28;;;;;;;4.72;0.93;;;;;;;;;;5115383;28;20416;-53
2023/01/10 12:48:00;;;;;;;2.47;0.88;;;;;;;;;;5115473;28;20020;-56
2023/01/10 12:50:33;;;;;;;1.65;0.57;;;;;;;;;;5115897;28;20038;-53
2023/01/10 12:52:59;;;;;;;2.67;0.73;;;;;;;;;;5115919;28;20016;-55
2023/01/10 12:55:27;;;;;;;3.00;0.75;;;;;;;;;;5115767;28;20024;-54
2023/01/10 12:57:56;;;;;;;8.38;0.90;;;;;;;;;;5115569;28;20473;-54
2023/01/10 13:00:24;;;;;;;2.60;1.20;;;;;;;;;;5115851;28;20020;-56
2023/01/10 13:02:52;;;;;;;0.82;0.40;;;;;;;;;;5115413;28;20082;-53
2023/01/10 13:05:23;;;;;;;3.88;0.65;;;;;;;;;;5115501;28;20102;-55
2023/01/10 13:07:51;;;;;;;2.50;0.80;;;;;;;;;;5115184;28;20028;-55
2023/01/10 13:10:20;;;;;;;6.32;1.30;;;;;;;;;;5115433;28;20028;-56
2023/01/10 13:12:58;;;;;;;1.63;0.50;;;;;;;;;;5115495;28;20023;-55
2023/01/10 13:15:37;;;;;;;1.73;0.38;;;;;;;;;;5115802;28;20080;-55
2023/01/10 13:18:05;;;;;;;3.20;1.10;;;;;;;;;;5114940;28;20122;-54
2023/01/10 13:20:40;;;;;;;1.60;0.70;;;;;;;;;;5114828;28;20028;-55
2023/01/10 13:23:14;;;;;;;8.00;0.88;;;;;;;;;;5114871;28;20035;-56
2023/01/10 13:25:40;;;;;;;0.50;0.30;;;;;;;;;;5115138;28;20027;-56
2023/01/10 13:28:20;;;;;;;2.25;0.70;;;;;;;;;;5115578;28;20027;-57
2023/01/10 13:30:54;;;;;;;3.58;0.77;;;;;;;;;;5114317;28;20450;-57
2023/01/10 13:33:20;;;;;;;2.83;1.42;;;;;;;;;;5115508;28;20126;-57
2023/01/10 13:35:47;;;;;;;1.40;0.60;;;;;;;;;;5115151;28;20051;-53
2023/01/10 13:38:26;;;;;;;0.45;0.20;;;;;;;;;;5115057;28;20106;-57
2023/01/10 13:40:58;;;;;;;7.30;2.13;;;;;;;;;;5115018;28;20016;-54
2023/01/10 13:43:44;;;;;;;4.25;1.83;;;;;;;;;;5114672;28;20039;-54
2023/01/10 13:46:16;;;;;;;1.73;0.85;;;;;;;;;;5104126;28;20038;-54
2023/01/10 13:48:48;;;;;;;1.52;0.50;;;;;;;;;;5114193;28;20476;-54
2023/01/10 13:51:18;;;;;;;2.78;1.02;;;;;;;;;;5114925;28;20024;-55
2023/01/10 13:53:56;;;;;;;4.43;0.68;;;;;;;;;;5114370;28;20032;-51
2023/01/10 13:56:28;;;;;;;2.47;1.17;;;;;;;;;;5115373;28;20024;-54
2023/01/10 14:04:25;;;;;;;6.55;1.20;;;;;;;;;;5114295;28;20105;-54
2023/01/10 14:06:53;;;;;;;3.42;1.55;;;;;;;;;;5113761;28;20081;-56
2023/01/10 14:09:19;;;;;;;3.72;0.55;;;;;;;;;;5114185;28;20077;-55
2023/01/10 14:11:45;;;;;;;1.88;0.68;;;;;;;;;;5114649;28;20036;-54
2023/01/10 14:14:26;;;;;;;1.88;0.60;;;;;;;;;;5114469;28;20093;-56
2023/01/10 14:16:54;;;;;;;1.45;1.08;;;;;;;;;;5114155;28;20024;-56
2023/01/10 14:19:29;;;;;;;1.75;0.60;;;;;;;;;;5114740;28;20028;-53
2023/01/10 14:21:56;;;;;;;1.48;1.05;;;;;;;;;;5114689;28;20085;-53
2023/01/10 14:24:23;;;;;;;0.52;0.30;;;;;;;;;;5114423;28;20105;-54
2023/01/10 14:26:49;;;;;;;1.67;0.50;;;;;;;;;;5114367;28;20076;-56
2023/01/10 14:29:17;;;;;;;6.85;1.83;;;;;;;;;;5113691;28;20020;-57
2023/01/10 14:31:45;;;;;;;1.80;0.52;;;;;;;;;;5114348;28;20031;-56
2023/01/10 14:34:14;;;;;;;2.10;0.52;;;;;;;;;;5113556;28;20035;-54
2023/01/10 14:36:49;;;;;;;0.98;0.60;;;;;;;;;;5113570;28;20020;-53
2023/01/10 14:39:15;;;;;;;3.38;1.08;;;;;;;;;;5113854;28;20024;-57
2023/01/10 14:41:43;;;;;;;1.65;0.25;;;;;;;;;;5114372;28;20375;-56
2023/01/10 14:44:28;;;;;;;4.65;0.43;;;;;;;;;;5114137;28;20047;-56
2023/01/10 14:46:55;;;;;;;0.98;0.50;;;;;;;;;;5114168;28;20035;-56
2023/01/10 14:49:35;;;;;;;2.50;0.77;;;;;;;;;;5114254;28;20413;-56
2023/01/10 14:52:11;;;;;;;3.25;0.73;;;;;;;;;;5113657;28;20349;-54
2023/01/10 14:54:37;;;;;;;1.90;0.70;;;;;;;;;;5113866;28;20165;-54
2023/01/10 14:57:03;;;;;;;2.65;0.80;;;;;;;;;;5114048;28;20070;-52
2023/01/10 14:59:33;;;;;;;1.58;1.00;;;;;;;;;;5113974;28;20457;-56
2023/01/10 15:02:03;;;;;;;2.72;0.93;;;;;;;;;;5113515;28;20111;-50
2023/01/10 15:04:29;;;;;;;;;;;;;;;;;;5114066;28;20028;-55
2023/01/10 15:06:57;;;;;;;3.05;0.82;;;;;;;;;;5113703;28;19903;-55